Woodmoor, Colorado
Current Conditions -  °F | °C
As of 1:58 AM on Sunday 26 Oct 2014 (Local Time) from KAFF Reporting Station
Clear Clear  
Wind Chill: 44°   Ceiling: Unl
Heat Index: 49°   Visibility: 10mi
Dew Point: 22°   Wind: 15mph
Humidity: 35%   Direction: 270°W
Pressure: 30.03"   Gusts: NA
Location:  39.0574°N, 104.903°W
Report Text: KAFF 260758Z AUTO 27013KT 10SM CLR 10/M05 A3003 RMK AO2 SLP092 T00951053
Loading
Personal Weather Stations






























Interactive Weather Map
Tropical Storm Tracking
New forecast layout! Learn more

10-Day Weather Forecast

Advertisements
Track Severe Weather on mobile